Time,TemperatureF,DewpointF,PressureIn,WindDirection,WindDirectionDegrees,WindSpeedMPH,WindSpeedGustMPH,Humidity,HourlyPrecipIn,Conditions,Clouds,dailyrainin,SoftwareType,DateUTC
2013-12-01 00:22:00,31.0,28.0,-100.00,SSE,160,0.0,0.0,91,-99.99,,,-99.99,,2013-12-01 06:22:00,
2013-12-01 00:52:00,29.0,28.0,-100.00,SSW,195,0.0,0.0,94,-99.99,,,-99.99,,2013-12-01 06:52:00,
2013-12-01 01:22:00,29.0,28.0,-100.00,NE,55,0.0,0.0,94,-99.99,,,-99.99,,2013-12-01 07:22:00,
2013-12-01 01:52:00,29.0,27.0,-100.00,ESE,110,0.0,0.0,93,-99.99,,,-99.99,,2013-12-01 07:52:00,
2013-12-01 02:22:00,29.0,28.0,-100.00,ENE,70,0.0,0.0,95,-99.99,,,-99.99,,2013-12-01 08:22:00,
2013-12-01 02:52:00,30.0,29.0,-100.00,ENE,70,0.0,0.0,96,-99.99,,,-99.99,,2013-12-01 08:52:00,
2013-12-01 03:22:00,31.0,29.0,-100.00,ENE,70,0.0,0.0,95,-99.99,,,-99.99,,2013-12-01 09:22:00,
2013-12-01 03:54:00,31.0,29.0,-100.00,ENE,75,0.0,0.0,92,-99.99,,,-99.99,,2013-12-01 09:54:00,
2013-12-01 04:22:00,31.0,29.0,-100.00,ENE,75,0.0,0.0,92,-99.99,,,-99.99,,2013-12-01 10:22:00,
2013-12-01 04:53:00,31.0,30.0,-100.00,SW,225,0.0,0.0,94,-99.99,,,-99.99,,2013-12-01 10:53:00,
2013-12-01 05:22:00,32.0,29.0,-100.00,NW,305,0.0,0.0,90,-99.99,,,-99.99,,2013-12-01 11:22:00,
2013-12-01 05:52:00,31.0,29.0,-100.00,WSW,250,0.0,0.0,92,-99.99,,,-99.99,,2013-12-01 11:52:00,
2013-12-01 06:22:00,32.0,29.0,-100.00,NW,325,0.0,0.0,89,-99.99,,,-99.99,,2013-12-01 12:22:00,
2013-12-01 06:52:00,32.0,29.0,-100.00,NW,310,0.0,0.0,89,-99.99,,,-99.99,,2013-12-01 12:52:00,
2013-12-01 07:21:00,31.0,29.0,-100.00,North,350,0.0,0.0,90,-99.99,,,-99.99,,2013-12-01 13:21:00,
2013-12-01 07:52:00,32.0,28.0,-100.00,NW,315,0.0,0.0,85,-99.99,,,-99.99,,2013-12-01 13:52:00,
2013-12-01 08:22:00,31.0,28.0,-100.00,NW,320,0.0,0.0,87,-99.99,,,-99.99,,2013-12-01 14:22:00,
2013-12-01 08:52:00,32.0,28.0,-100.00,NNE,20,0.0,0.0,84,-99.99,,,-99.99,,2013-12-01 14:52:00,
2013-12-01 09:22:00,33.0,29.0,-100.00,North,355,0.0,0.0,82,-99.99,,,-99.99,,2013-12-01 15:22:00,
2013-12-01 09:53:00,36.0,29.0,-100.00,NNE,30,0.0,0.0,75,-99.99,,,-99.99,,2013-12-01 15:53:00,
2013-12-01 10:23:00,37.0,29.0,-100.00,North,5,0.0,0.0,72,-99.99,,,-99.99,,2013-12-01 16:23:00,
2013-12-01 10:52:00,39.0,29.0,-100.00,NNW,335,0.0,0.0,67,-99.99,,,-99.99,,2013-12-01 16:52:00,
2013-12-01 11:22:00,41.0,29.0,-100.00,NE,45,0.0,0.0,62,-99.99,,,-99.99,,2013-12-01 17:22:00,
2013-12-01 11:52:00,41.0,29.0,-100.00,North,350,0.0,0.0,63,-99.99,,,-99.99,,2013-12-01 17:52:00,
2013-12-01 12:22:00,42.0,29.0,-100.00,North,5,0.0,0.0,59,-99.99,,,-99.99,,2013-12-01 18:22:00,
2013-12-01 12:52:00,44.0,28.0,-100.00,North,350,0.0,0.0,54,-99.99,,,-99.99,,2013-12-01 18:52:00,
2013-12-01 13:21:00,43.0,29.0,-100.00,North,5,0.0,0.0,56,-99.99,,,-99.99,,2013-12-01 19:21:00,
2013-12-01 13:52:00,44.0,29.0,-100.00,North,350,0.0,0.0,54,-99.99,,,-99.99,,2013-12-01 19:52:00,
2013-12-01 14:21:00,44.0,28.0,-100.00,NNW,340,0.0,0.0,54,-99.99,,,-99.99,,2013-12-01 20:21:00,
2013-12-01 14:52:00,44.0,29.0,-100.00,North,355,0.0,0.0,54,-99.99,,,-99.99,,2013-12-01 20:52:00,
2013-12-01 15:22:00,44.0,29.0,-100.00,North,350,0.0,0.0,55,-99.99,,,-99.99,,2013-12-01 21:22:00,
2013-12-01 15:53:00,44.0,29.0,-100.00,WNW,300,0.0,0.0,56,-99.99,,,-99.99,,2013-12-01 21:53:00,
2013-12-01 16:22:00,43.0,29.0,-100.00,NW,325,0.0,0.0,59,-99.99,,,-99.99,,2013-12-01 22:22:00,
2013-12-01 16:52:00,42.0,29.0,-100.00,North,0,0.0,0.0,60,-99.99,,,-99.99,,2013-12-01 22:52:00,
2013-12-01 17:22:00,41.0,29.0,-100.00,ENE,70,0.0,0.0,61,-99.99,,,-99.99,,2013-12-01 23:22:00,
2013-12-01 17:52:00,40.0,29.0,-100.00,ESE,105,0.0,0.0,63,-99.99,,,-99.99,,2013-12-01 23:52:00,
2013-12-01 18:21:00,40.0,29.0,-100.00,NE,45,0.0,0.0,64,-99.99,,,-99.99,,2013-12-02 00:21:00,
2013-12-01 18:52:00,40.0,29.0,-100.00,ENE,70,0.0,0.0,65,-99.99,,,-99.99,,2013-12-02 00:52:00,
2013-12-01 19:21:00,39.0,29.0,-100.00,NE,40,0.0,0.0,66,-99.99,,,-99.99,,2013-12-02 01:21:00,
2013-12-01 19:52:00,39.0,28.0,-100.00,NNE,15,0.0,0.0,65,-99.99,,,-99.99,,2013-12-02 01:52:00,
2013-12-01 20:21:00,39.0,28.0,-100.00,NNE,30,0.0,0.0,64,-99.99,,,-99.99,,2013-12-02 02:21:00,
2013-12-01 20:52:00,39.0,28.0,-100.00,NE,40,0.0,0.0,64,-99.99,,,-99.99,,2013-12-02 02:52:00,
2013-12-01 21:22:00,38.0,27.0,-100.00,NE,40,0.0,0.0,64,-99.99,,,-99.99,,2013-12-02 03:22:00,
2013-12-01 21:54:00,38.0,28.0,-100.00,NNE,30,0.0,0.0,67,-99.99,,,-99.99,,2013-12-02 03:54:00,
2013-12-01 22:23:00,37.0,28.0,-100.00,NE,35,0.0,0.0,70,-99.99,,,-99.99,,2013-12-02 04:23:00,
2013-12-01 22:53:00,37.0,27.0,-100.00,NE,35,0.0,0.0,68,-99.99,,,-99.99,,2013-12-02 04:53:00,
2013-12-01 23:23:00,36.0,27.0,-100.00,NE,40,0.0,0.0,69,-99.99,,,-99.99,,2013-12-02 05:23:00,
2013-12-01 23:53:00,36.0,27.0,-100.00,NE,55,0.0,0.0,69,-99.99,,,-99.99,,2013-12-02 05:53:00,